createdAt,value
2022-08-04T00:00:12.995Z,4.07
2022-08-04T00:02:51.780Z,3.92
2022-08-04T00:05:52.464Z,4.68
2022-08-04T00:08:50.533Z,4.55
2022-08-04T00:11:26.115Z,6.15
2022-08-04T00:14:03.864Z,6.53
2022-08-04T00:16:37.909Z,3.88
2022-08-04T00:19:18.647Z,3.30
2022-08-04T00:22:07.286Z,3.75
2022-08-04T00:24:35.503Z,5.05
2022-08-04T00:27:02.721Z,4.43
2022-08-04T00:29:31.046Z,4.35
2022-08-04T00:31:58.202Z,3.63
2022-08-04T00:34:31.410Z,4.57
2022-08-04T00:36:58.610Z,4.57
2022-08-04T00:39:26.966Z,4.35
2022-08-04T00:42:04.638Z,3.92
2022-08-04T00:44:40.115Z,3.80
2022-08-04T00:47:33.641Z,3.97
2022-08-04T00:50:10.679Z,3.72
2022-08-04T00:53:06.215Z,3.50
2022-08-04T00:56:27.810Z,4.28
2022-08-04T00:59:17.893Z,2.90
2022-08-04T01:02:06.331Z,3.22
2022-08-04T01:04:50.686Z,3.22
2022-08-04T01:07:45.197Z,2.83
2022-08-04T01:10:40.258Z,3.20
2022-08-04T01:13:43.655Z,3.47
2022-08-04T01:16:16.232Z,3.22
2022-08-04T01:19:06.076Z,3.15
2022-08-04T01:21:57.123Z,3.25
2022-08-04T01:24:45.833Z,3.30
2022-08-04T01:27:57.712Z,3.00
2022-08-04T01:30:27.622Z,3.08
2022-08-04T01:33:13.231Z,3.08
2022-08-04T01:35:53.785Z,3.08
2022-08-04T01:38:39.108Z,3.33
2022-08-04T01:41:08.044Z,3.50
2022-08-04T01:43:40.732Z,2.75
2022-08-04T01:46:12.769Z,3.08
2022-08-04T01:48:41.042Z,3.08
2022-08-04T01:51:10.244Z,2.97
2022-08-04T01:53:41.418Z,3.33
2022-08-04T01:56:11.168Z,3.58
2022-08-04T01:58:40.981Z,3.40
2022-08-04T02:01:12.482Z,3.75
2022-08-04T02:04:20.461Z,3.80
2022-08-04T02:06:49.737Z,3.60
2022-08-04T02:09:24.346Z,3.00
2022-08-04T02:12:16.211Z,3.20
2022-08-04T02:14:59.579Z,3.30
2022-08-04T02:17:40.953Z,3.35
2022-08-04T02:20:15.324Z,3.47
2022-08-04T02:22:58.366Z,4.28
2022-08-04T02:25:29.032Z,3.83
2022-08-04T02:28:32.761Z,4.20
2022-08-04T02:31:17.883Z,3.70
2022-08-04T02:34:37.282Z,3.80
2022-08-04T02:37:05.332Z,4.13
2022-08-04T02:39:48.278Z,4.20
2022-08-04T02:42:16.711Z,3.50
2022-08-04T02:44:48.903Z,3.85
2022-08-04T02:47:20.278Z,3.60
2022-08-04T02:49:50.500Z,3.78
2022-08-04T02:52:21.648Z,3.55
2022-08-04T02:54:53.916Z,3.20
2022-08-04T02:57:27.296Z,3.63
2022-08-04T03:00:09.079Z,3.65
2022-08-04T03:02:58.747Z,3.88
2022-08-04T03:05:54.150Z,3.40
2022-08-04T03:08:36.909Z,3.60
2022-08-04T03:11:44.352Z,3.30
2022-08-04T03:14:22.753Z,3.67
2022-08-04T03:17:07.809Z,3.72
2022-08-04T03:20:07.142Z,3.88
2022-08-04T03:23:13.959Z,3.75
2022-08-04T03:26:02.425Z,4.53
2022-08-04T03:29:02.878Z,4.10
2022-08-04T03:32:06.421Z,3.80
2022-08-04T03:35:22.973Z,3.75
2022-08-04T03:38:24.243Z,3.88
2022-08-04T03:41:18.234Z,4.28
2022-08-04T03:44:38.871Z,4.05
2022-08-04T03:47:55.233Z,4.53
2022-08-04T03:51:35.500Z,3.83
2022-08-04T03:54:21.065Z,3.97
2022-08-04T03:57:19.285Z,4.20
2022-08-04T04:00:18.013Z,3.88
2022-08-04T04:03:28.113Z,4.18
2022-08-04T04:06:32.905Z,4.10
2022-08-04T04:09:28.739Z,4.70
2022-08-04T04:12:21.371Z,4.00
2022-08-04T04:15:00.231Z,4.50
2022-08-04T04:17:46.990Z,4.57
2022-08-04T04:20:19.769Z,4.65
2022-08-04T04:23:47.699Z,4.32
2022-08-04T04:26:53.058Z,4.78
2022-08-04T04:29:56.797Z,4.85
2022-08-04T04:32:32.955Z,4.65
2022-08-04T04:35:29.544Z,4.82
2022-08-04T04:38:17.199Z,5.03
2022-08-04T04:40:57.177Z,5.57
2022-08-04T04:43:52.017Z,5.25
2022-08-04T04:46:46.999Z,5.20
2022-08-04T04:49:40.807Z,4.95
2022-08-04T04:52:43.815Z,4.85
2022-08-04T04:55:21.554Z,4.97
2022-08-04T04:57:55.360Z,4.88
2022-08-04T05:00:26.731Z,4.95
2022-08-04T05:03:29.876Z,5.30
2022-08-04T05:07:07.488Z,5.57
2022-08-04T05:09:59.739Z,5.15
2022-08-04T05:14:31.768Z,4.97
2022-08-04T05:15:30.568Z,5.00
2022-08-04T05:18:01.018Z,4.75
2022-08-04T05:20:45.933Z,3.90
2022-08-04T05:23:25.150Z,4.28
2022-08-04T05:26:00.300Z,4.45
2022-08-04T05:28:45.656Z,4.10
2022-08-04T05:31:21.305Z,4.57
2022-08-04T05:33:54.243Z,3.85
2022-08-04T05:36:40.408Z,4.20
2022-08-04T05:39:15.634Z,4.00
2022-08-04T05:41:45.885Z,5.22
2022-08-04T05:44:18.368Z,4.47
2022-08-04T05:46:54.157Z,4.13
2022-08-04T05:49:24.926Z,4.47
2022-08-04T05:51:55.132Z,5.15
2022-08-04T05:54:24.446Z,4.22
2022-08-04T05:56:52.058Z,4.35
2022-08-04T05:59:20.645Z,5.10
2022-08-04T06:01:56.580Z,4.60
2022-08-04T06:04:32.240Z,4.13
2022-08-04T06:06:59.160Z,4.40
2022-08-04T06:09:26.137Z,3.90
2022-08-04T06:12:00.544Z,4.85
2022-08-04T06:14:40.657Z,4.10
2022-08-04T06:18:32.659Z,3.63
2022-08-04T06:20:18.013Z,3.95
2022-08-04T06:22:49.398Z,3.40
2022-08-04T06:25:22.414Z,3.75
2022-08-04T06:27:51.164Z,3.15
2022-08-04T06:30:19.493Z,3.78
2022-08-04T06:32:48.954Z,2.90
2022-08-04T06:35:20.024Z,3.38
2022-08-04T06:37:48.209Z,4.20
2022-08-04T06:40:31.569Z,3.92
2022-08-04T06:43:07.902Z,3.25
2022-08-04T06:45:39.802Z,3.20
2022-08-04T06:48:07.357Z,2.70
2022-08-04T06:51:29.518Z,3.58
2022-08-04T06:53:27.247Z,3.00
2022-08-04T06:55:56.271Z,3.28
2022-08-04T06:58:24.852Z,2.95
2022-08-04T07:00:52.882Z,3.17
2022-08-04T07:03:21.743Z,2.70
2022-08-04T07:05:50.356Z,2.90
2022-08-04T07:08:17.699Z,3.03
2022-08-04T07:10:45.537Z,3.22
2022-08-04T07:13:13.455Z,2.65
2022-08-04T07:15:45.246Z,3.67
2022-08-04T07:18:12.205Z,2.95
2022-08-04T07:20:44.873Z,3.63
2022-08-04T07:23:17.458Z,3.00
2022-08-04T07:26:00.191Z,4.32
2022-08-04T07:28:37.435Z,3.40
2022-08-04T07:31:06.204Z,2.88
2022-08-04T07:33:33.386Z,3.08
2022-08-04T07:36:09.878Z,3.10
2022-08-04T07:38:48.571Z,3.50
2022-08-04T07:41:39.076Z,6.25
2022-08-04T07:44:08.217Z,3.63
2022-08-04T07:46:37.052Z,3.70
2022-08-04T07:49:05.706Z,3.45
2022-08-04T07:51:35.491Z,2.55
2022-08-04T07:54:05.657Z,4.05
2022-08-04T07:56:37.188Z,3.17
2022-08-04T07:59:04.787Z,3.20
2022-08-04T08:01:31.997Z,2.60
2022-08-04T08:04:00.718Z,2.63
2022-08-04T08:06:32.677Z,2.28
2022-08-04T08:09:13.628Z,2.30
2022-08-04T08:12:38.402Z,3.38
2022-08-04T08:14:31.614Z,2.72
2022-08-04T08:17:02.396Z,2.92
2022-08-04T08:19:31.240Z,2.50
2022-08-04T08:22:00.911Z,3.10
2022-08-04T08:24:37.152Z,2.17
2022-08-04T08:27:05.009Z,2.65
2022-08-04T08:29:35.084Z,2.75
2022-08-04T08:32:08.110Z,2.47
2022-08-04T08:34:36.187Z,2.38
2022-08-04T08:37:42.138Z,2.40
2022-08-04T08:40:41.558Z,2.28
2022-08-04T08:44:05.669Z,4.55
2022-08-04T08:46:50.472Z,2.30
2022-08-04T08:50:01.148Z,2.50
2022-08-04T08:53:01.219Z,2.70
2022-08-04T08:55:49.354Z,3.22
2022-08-04T08:59:07.060Z,2.70
2022-08-04T09:02:10.629Z,2.55
2022-08-04T09:05:12.491Z,2.33
2022-08-04T09:08:30.700Z,2.58
2022-08-04T09:11:06.639Z,2.67
2022-08-04T09:13:54.258Z,3.17
2022-08-04T09:16:33.238Z,2.78
2022-08-04T09:19:38.910Z,3.00
2022-08-04T09:22:38.412Z,3.00
2022-08-04T09:25:26.651Z,3.30
2022-08-04T09:28:09.360Z,2.42
2022-08-04T09:31:00.143Z,2.42
2022-08-04T09:33:52.905Z,2.63
2022-08-04T09:36:31.200Z,2.60
2022-08-04T09:39:22.804Z,2.22
2022-08-04T09:42:29.420Z,2.15
2022-08-04T09:45:06.096Z,1.90
2022-08-04T09:47:53.136Z,1.83
2022-08-04T09:50:49.927Z,2.10
2022-08-04T09:54:30.588Z,2.00
2022-08-04T09:57:31.378Z,2.10
2022-08-04T10:00:13.580Z,2.17
2022-08-04T10:02:55.101Z,2.25
2022-08-04T10:05:37.961Z,2.25
2022-08-04T10:08:48.305Z,2.33
2022-08-04T10:11:55.715Z,2.60
2022-08-04T10:14:44.496Z,2.22
2022-08-04T10:17:52.264Z,2.55
2022-08-04T10:20:59.027Z,2.90
2022-08-04T10:24:07.277Z,2.80
2022-08-04T10:27:00.174Z,2.92
2022-08-04T10:29:30.539Z,2.67
2022-08-04T10:32:12.094Z,2.80
2022-08-04T10:34:58.037Z,2.90
2022-08-04T10:38:01.064Z,2.85
2022-08-04T10:40:51.032Z,2.60
2022-08-04T10:43:36.063Z,2.65
2022-08-04T10:46:16.908Z,2.28
2022-08-04T10:49:08.402Z,2.30
2022-08-04T10:52:20.817Z,2.50
2022-08-04T10:55:06.957Z,2.72
2022-08-04T10:57:51.831Z,2.47
2022-08-04T11:00:27.383Z,2.67
2022-08-04T11:03:23.088Z,1.98
2022-08-04T11:05:55.566Z,2.30
2022-08-04T11:08:47.693Z,4.88
2022-08-04T11:12:00.446Z,2.33
2022-08-04T11:14:45.241Z,5.60
2022-08-04T11:17:21.298Z,2.60
2022-08-04T11:20:36.001Z,2.45
2022-08-04T11:23:10.610Z,2.40
2022-08-04T11:25:47.218Z,2.58
2022-08-04T11:28:39.606Z,2.47
2022-08-04T11:31:20.022Z,2.40
2022-08-04T11:34:09.994Z,2.50
2022-08-04T11:37:19.198Z,2.00
2022-08-04T11:40:20.905Z,2.35
2022-08-04T11:43:12.528Z,2.88
2022-08-04T11:45:53.205Z,3.20
2022-08-04T11:48:32.829Z,3.10
2022-08-04T11:51:02.450Z,3.35
2022-08-04T11:53:37.227Z,2.40
2022-08-04T11:56:11.441Z,2.50
2022-08-04T11:58:39.538Z,2.50
2022-08-04T12:01:21.701Z,2.30
2022-08-04T12:04:13.489Z,2.13
2022-08-04T12:07:21.882Z,1.85
2022-08-04T12:10:08.189Z,3.03
2022-08-04T12:12:52.230Z,2.65
2022-08-04T12:15:36.228Z,2.80
2022-08-04T12:18:22.897Z,2.60
2022-08-04T12:21:02.066Z,2.60
2022-08-04T12:23:38.402Z,3.22
2022-08-04T12:26:15.700Z,2.17
2022-08-04T12:29:09.109Z,2.50
2022-08-04T12:31:51.110Z,2.58
2022-08-04T12:34:34.200Z,3.33
2022-08-04T12:37:23.419Z,2.83
2022-08-04T12:40:28.457Z,3.10
2022-08-04T12:42:59.897Z,2.25
2022-08-04T12:45:28.781Z,2.50
2022-08-04T12:47:59.284Z,2.22
2022-08-04T12:50:30.030Z,2.60
2022-08-04T12:53:03.478Z,2.40
2022-08-04T12:55:35.377Z,2.13
2022-08-04T12:58:10.878Z,2.30
2022-08-04T13:00:41.667Z,2.50
2022-08-04T13:03:16.819Z,2.85
2022-08-04T13:05:46.410Z,2.40
2022-08-04T13:08:15.231Z,2.20
2022-08-04T13:10:46.715Z,2.65
2022-08-04T13:13:24.453Z,3.00
2022-08-04T13:16:02.142Z,2.20
2022-08-04T13:18:32.926Z,2.40
2022-08-04T13:21:23.171Z,2.25
2022-08-04T13:24:21.307Z,2.35
2022-08-04T13:27:03.918Z,2.30
2022-08-04T13:29:58.119Z,2.33
2022-08-04T13:32:28.975Z,2.15
2022-08-04T13:35:00.224Z,2.10
2022-08-04T13:37:36.619Z,2.38
2022-08-04T13:40:11.786Z,2.40
2022-08-04T13:42:40.352Z,2.17
2022-08-04T13:45:09.843Z,1.88
2022-08-04T13:47:40.330Z,2.00
2022-08-04T13:50:13.103Z,2.10
2022-08-04T13:52:42.776Z,2.35
2022-08-04T13:55:29.346Z,2.03
2022-08-04T13:58:10.057Z,4.28
2022-08-04T14:00:59.637Z,2.28
2022-08-04T14:03:53.496Z,2.28
2022-08-04T14:06:44.315Z,2.50
2022-08-04T14:09:35.178Z,2.50
2022-08-04T14:12:45.789Z,2.30
2022-08-04T14:14:59.089Z,2.03
2022-08-04T14:17:30.540Z,2.30
2022-08-04T14:19:59.127Z,2.38
2022-08-04T14:22:25.719Z,2.38
2022-08-04T14:25:15.430Z,2.78
2022-08-04T14:27:50.949Z,2.70
2022-08-04T14:30:33.344Z,2.25
2022-08-04T14:34:01.116Z,2.47
2022-08-04T14:35:59.223Z,2.40
2022-08-04T14:39:01.599Z,2.33
2022-08-04T14:41:43.698Z,2.85
2022-08-04T14:44:10.634Z,2.55
2022-08-04T14:46:51.683Z,2.28
2022-08-04T14:49:18.775Z,2.28
2022-08-04T14:52:05.887Z,2.40
2022-08-04T14:54:35.481Z,1.90
2022-08-04T14:57:07.946Z,2.20
2022-08-04T14:59:59.059Z,1.88
2022-08-04T15:02:29.936Z,1.80
2022-08-04T15:04:59.137Z,2.00
2022-08-04T15:07:46.062Z,1.70
2022-08-04T15:10:13.506Z,1.60
2022-08-04T15:12:40.728Z,2.03
2022-08-04T15:15:34.058Z,1.55
2022-08-04T15:17:55.358Z,1.85
2022-08-04T15:20:22.830Z,2.03
2022-08-04T15:22:49.813Z,1.92
2022-08-04T15:25:17.433Z,2.00
2022-08-04T15:27:48.977Z,1.90
2022-08-04T15:30:18.163Z,1.77
2022-08-04T15:32:53.022Z,2.10
2022-08-04T15:35:28.904Z,1.83
2022-08-04T15:38:15.063Z,1.75
2022-08-04T15:41:00.021Z,1.90
2022-08-04T15:44:17.708Z,1.60
2022-08-04T15:46:47.370Z,2.10
2022-08-04T15:49:25.763Z,2.00
2022-08-04T15:52:11.849Z,1.83
2022-08-04T15:54:42.154Z,2.10
2022-08-04T15:57:14.168Z,3.58
2022-08-04T16:00:03.222Z,2.85
2022-08-04T16:02:32.365Z,2.67
2022-08-04T16:05:17.713Z,2.97
2022-08-04T16:08:00.250Z,3.00
2022-08-04T16:10:32.815Z,2.70
2022-08-04T16:13:08.671Z,2.15
2022-08-04T16:15:45.165Z,1.75
2022-08-04T16:18:27.254Z,1.50
2022-08-04T16:21:05.814Z,2.10
2022-08-04T16:23:56.093Z,1.95
2022-08-04T16:26:45.393Z,1.80
2022-08-04T16:29:37.720Z,2.03
2022-08-04T16:32:18.380Z,1.40
2022-08-04T16:35:01.365Z,2.00
2022-08-04T16:37:42.811Z,1.30
2022-08-04T16:40:37.598Z,1.60
2022-08-04T16:43:13.218Z,1.27
2022-08-04T16:46:00.521Z,1.25
2022-08-04T16:48:30.347Z,1.80
2022-08-04T16:51:12.994Z,2.25
2022-08-04T16:53:57.828Z,1.73
2022-08-04T16:56:34.715Z,1.65
2022-08-04T16:59:13.591Z,1.23
2022-08-04T17:01:52.239Z,1.10
2022-08-04T17:04:32.762Z,1.70
2022-08-04T17:07:05.671Z,1.50
2022-08-04T17:09:33.372Z,1.42
2022-08-04T17:12:02.268Z,5.18
2022-08-04T17:14:31.943Z,5.55
2022-08-04T17:17:02.421Z,2.70
2022-08-04T17:19:29.511Z,1.67
2022-08-04T17:22:07.371Z,1.45
2022-08-04T17:24:41.051Z,1.85
2022-08-04T17:28:09.650Z,1.88
2022-08-04T17:29:55.831Z,1.45
2022-08-04T17:32:23.687Z,2.50
2022-08-04T17:34:55.398Z,2.20
2022-08-04T17:37:40.137Z,1.73
2022-08-04T17:40:18.549Z,1.75
2022-08-04T17:44:04.923Z,1.92
2022-08-04T17:46:45.680Z,1.50
2022-08-04T17:49:18.492Z,1.70
2022-08-04T17:52:06.373Z,1.90
2022-08-04T17:54:39.987Z,1.85
2022-08-04T17:57:21.337Z,1.92
2022-08-04T17:59:56.233Z,1.73
2022-08-04T18:02:34.367Z,1.55
2022-08-04T18:05:07.615Z,2.10
2022-08-04T18:08:35.638Z,2.15
2022-08-04T18:10:51.709Z,2.03
2022-08-04T18:13:26.273Z,2.35
2022-08-04T18:16:14.565Z,3.10
2022-08-04T18:19:14.606Z,2.83
2022-08-04T18:21:45.583Z,3.10
2022-08-04T18:24:15.250Z,3.13
2022-08-04T18:26:43.298Z,3.53
2022-08-04T18:29:30.915Z,3.55
2022-08-04T18:31:58.852Z,3.80
2022-08-04T18:34:27.231Z,4.13
2022-08-04T18:36:59.053Z,4.55
2022-08-04T18:40:09.714Z,5.45
2022-08-04T18:42:16.115Z,5.00
2022-08-04T18:44:52.282Z,7.50
2022-08-04T18:47:24.970Z,6.68
2022-08-04T18:51:00.926Z,5.15
2022-08-04T18:52:45.493Z,6.88
2022-08-04T18:55:55.355Z,6.93
2022-08-04T18:58:06.276Z,3.42
2022-08-04T19:00:35.068Z,2.83
2022-08-04T19:03:02.213Z,3.35
2022-08-04T19:05:38.194Z,2.30
2022-08-04T19:08:32.810Z,2.70
2022-08-04T19:10:59.942Z,2.60
2022-08-04T19:13:30.060Z,3.00
2022-08-04T19:16:01.808Z,2.35
2022-08-04T19:18:28.879Z,2.40
2022-08-04T19:20:55.929Z,3.08
2022-08-04T19:24:28.761Z,2.20
2022-08-04T19:26:23.819Z,2.95
2022-08-04T19:28:56.765Z,2.38
2022-08-04T19:31:28.430Z,2.10
2022-08-04T19:34:04.925Z,2.20
2022-08-04T19:36:34.579Z,2.45
2022-08-04T19:39:11.365Z,1.92
2022-08-04T19:42:05.716Z,1.77
2022-08-04T19:44:29.975Z,1.70
2022-08-04T19:47:00.883Z,1.98
2022-08-04T19:50:03.233Z,2.15
2022-08-04T19:52:34.016Z,2.33
2022-08-04T19:55:09.858Z,2.05
2022-08-04T19:57:46.168Z,3.15
2022-08-04T20:00:14.515Z,2.50
2022-08-04T20:02:42.097Z,1.95
2022-08-04T20:05:09.627Z,2.38
2022-08-04T20:07:37.194Z,3.15
2022-08-04T20:10:05.837Z,2.60
2022-08-04T20:12:33.845Z,2.40
2022-08-04T20:15:01.216Z,2.22
2022-08-04T20:18:07.126Z,2.40
2022-08-04T20:23:01.552Z,2.63
2022-08-04T20:25:36.426Z,2.45
2022-08-04T20:28:05.082Z,2.55
2022-08-04T20:30:33.266Z,2.20
2022-08-04T20:33:01.357Z,2.40
2022-08-04T20:35:32.472Z,2.22
2022-08-04T20:38:32.790Z,2.05
2022-08-04T20:41:01.759Z,2.30
2022-08-04T20:43:31.368Z,1.90
2022-08-04T20:45:59.674Z,2.20
2022-08-04T20:48:33.897Z,1.98
2022-08-04T20:51:00.778Z,3.00
2022-08-04T20:53:32.561Z,1.95
2022-08-04T20:56:30.235Z,2.10
2022-08-04T20:59:00.014Z,2.67
2022-08-04T21:01:30.452Z,2.10
2022-08-04T21:04:27.448Z,2.42
2022-08-04T21:06:57.418Z,2.17
2022-08-04T21:09:37.199Z,2.35
2022-08-04T21:12:06.126Z,2.55
2022-08-04T21:14:33.044Z,2.15
2022-08-04T21:17:00.513Z,2.50
2022-08-04T21:19:28.504Z,3.10
2022-08-04T21:21:55.385Z,2.60
2022-08-04T21:24:26.192Z,2.40
2022-08-04T21:26:57.342Z,2.45
2022-08-04T21:29:29.557Z,2.22
2022-08-04T21:32:07.743Z,2.50
2022-08-04T21:34:39.379Z,2.20
2022-08-04T21:37:10.067Z,2.10
2022-08-04T21:39:50.275Z,2.58
2022-08-04T21:42:27.768Z,3.10
2022-08-04T21:44:55.329Z,2.40
2022-08-04T21:47:23.782Z,2.83
2022-08-04T21:49:56.357Z,2.33
2022-08-04T21:52:24.059Z,2.30
2022-08-04T21:54:54.431Z,2.50
2022-08-04T21:57:24.790Z,2.35
2022-08-04T22:00:10.752Z,2.97
2022-08-04T22:02:45.003Z,2.65
2022-08-04T22:05:11.913Z,2.50
2022-08-04T22:07:50.996Z,2.70
2022-08-04T22:10:32.126Z,2.45
2022-08-04T22:16:03.738Z,2.50
2022-08-04T22:18:32.174Z,2.70
2022-08-04T22:23:53.015Z,2.58
2022-08-04T22:26:26.925Z,2.60
2022-08-04T22:28:56.170Z,2.63
2022-08-04T22:31:25.564Z,2.72
2022-08-04T22:33:53.937Z,2.53
2022-08-04T22:36:24.967Z,2.83
2022-08-04T22:39:04.112Z,3.15
2022-08-04T22:41:33.865Z,2.30
2022-08-04T22:44:15.928Z,2.38
2022-08-04T22:46:42.970Z,3.00
2022-08-04T22:49:09.719Z,2.47
2022-08-04T22:51:36.397Z,3.25
2022-08-04T22:54:12.356Z,2.97
2022-08-04T22:56:39.501Z,3.00
2022-08-04T22:59:10.882Z,3.88
2022-08-04T23:01:59.179Z,2.67
2022-08-04T23:04:26.062Z,2.92
2022-08-04T23:06:54.395Z,3.30
2022-08-04T23:09:22.275Z,2.83
2022-08-04T23:12:24.574Z,3.10
2022-08-04T23:14:54.832Z,3.13
2022-08-04T23:17:22.241Z,3.15
2022-08-04T23:19:58.291Z,3.63
2022-08-04T23:22:41.763Z,3.60
2022-08-04T23:25:16.446Z,3.20
2022-08-04T23:27:48.142Z,3.25
2022-08-04T23:30:19.890Z,2.85
2022-08-04T23:32:48.811Z,3.10
2022-08-04T23:35:16.505Z,3.65
2022-08-04T23:37:56.222Z,3.67
2022-08-04T23:40:32.930Z,3.45
2022-08-04T23:43:17.117Z,3.35
2022-08-04T23:46:04.978Z,3.28
2022-08-04T23:48:33.261Z,3.58
2022-08-04T23:51:14.007Z,4.03
2022-08-04T23:54:01.524Z,3.42
2022-08-04T23:56:31.794Z,3.10
2022-08-04T23:59:00.197Z,3.97
